Time;durP1;ratioP1;P1;durP2;ratioP2;P2;SDS_P1;SDS_P2;PMS_P1;PMS_P2;Temp;Humidity;BMP_temperature;BMP_pressure;BME280_temperature;BME280_humidity;BME280_pressure;Samples;Min_cycle;Max_cycle;Signal;HPM_P1;HPM_P2
2023/08/20 00:00:16;;;;;;;8.18;6.05;;;;;;;;;;5063362;28;20399;-66
2023/08/20 00:02:44;;;;;;;7.40;6.15;;;;;;;;;;5061793;28;20214;-66
2023/08/20 00:05:11;;;;;;;7.78;5.78;;;;;;;;;;5061914;28;20259;-65
2023/08/20 00:07:38;;;;;;;6.28;5.65;;;;;;;;;;5063610;28;20972;-68
2023/08/20 00:10:05;;;;;;;6.15;5.70;;;;;;;;;;5063367;28;20195;-66
2023/08/20 00:12:31;;;;;;;6.82;5.88;;;;;;;;;;5064375;28;20226;-66
2023/08/20 00:15:04;;;;;;;6.15;5.60;;;;;;;;;;5063844;28;20218;-65
2023/08/20 00:17:31;;;;;;;7.47;6.72;;;;;;;;;;5064890;28;20293;-67
2023/08/20 00:19:59;;;;;;;7.22;6.38;;;;;;;;;;5063197;28;20663;-68
2023/08/20 00:22:26;;;;;;;6.57;6.03;;;;;;;;;;5063987;28;20257;-67
2023/08/20 00:24:53;;;;;;;8.27;5.75;;;;;;;;;;5063007;28;20206;-66
2023/08/20 00:27:20;;;;;;;7.72;6.95;;;;;;;;;;5063268;28;20210;-66
2023/08/20 00:29:46;;;;;;;7.22;6.72;;;;;;;;;;5063865;28;20680;-65
2023/08/20 00:32:13;;;;;;;7.68;7.10;;;;;;;;;;5064297;28;20227;-66
2023/08/20 00:34:40;;;;;;;7.72;6.88;;;;;;;;;;5063665;28;20222;-68
2023/08/20 00:37:08;;;;;;;8.05;6.25;;;;;;;;;;5064053;28;20206;-68
2023/08/20 00:39:34;;;;;;;7.38;6.68;;;;;;;;;;5064201;28;20652;-70
2023/08/20 00:42:01;;;;;;;6.25;5.75;;;;;;;;;;5063626;28;20234;-68
2023/08/20 00:44:27;;;;;;;9.18;7.13;;;;;;;;;;5063102;28;20202;-66
2023/08/20 00:46:54;;;;;;;7.45;6.95;;;;;;;;;;5063859;28;20716;-67
2023/08/20 00:49:20;;;;;;;8.90;5.15;;;;;;;;;;5062506;28;20226;-66
2023/08/20 00:51:47;;;;;;;6.65;6.18;;;;;;;;;;5063892;28;20226;-67
2023/08/20 00:54:15;;;;;;;11.52;7.40;;;;;;;;;;5063156;28;20245;-67
2023/08/20 00:56:41;;;;;;;8.98;6.30;;;;;;;;;;5064206;28;20206;-66
2023/08/20 00:59:07;;;;;;;7.15;6.55;;;;;;;;;;5063659;28;20202;-66
2023/08/20 01:01:34;;;;;;;6.95;6.35;;;;;;;;;;5063974;28;20218;-67
2023/08/20 01:04:00;;;;;;;10.27;7.50;;;;;;;;;;5063246;28;20234;-66
2023/08/20 01:06:34;;;;;;;6.15;5.75;;;;;;;;;;5063287;28;21119;-67
2023/08/20 01:09:04;;;;;;;12.90;7.45;;;;;;;;;;5063322;28;20202;-68
2023/08/20 01:11:34;;;;;;;7.38;6.75;;;;;;;;;;5063361;28;20225;-68
2023/08/20 01:14:01;;;;;;;7.45;6.18;;;;;;;;;;5062819;28;20206;-66
2023/08/20 01:16:27;;;;;;;6.80;6.30;;;;;;;;;;5062229;28;20275;-68
2023/08/20 01:18:54;;;;;;;6.95;6.35;;;;;;;;;;5063451;28;21268;-68
2023/08/20 01:21:24;;;;;;;8.88;7.00;;;;;;;;;;5062958;28;20217;-67
2023/08/20 01:24:06;;;;;;;7.47;6.68;;;;;;;;;;5063426;28;20757;-68
2023/08/20 01:26:53;;;;;;;7.78;7.07;;;;;;;;;;5060629;28;20684;-68
2023/08/20 01:29:21;;;;;;;9.68;6.65;;;;;;;;;;5063523;28;20298;-68
2023/08/20 01:31:48;;;;;;;7.97;7.30;;;;;;;;;;5063605;28;20194;-68
2023/08/20 01:34:15;;;;;;;7.85;7.15;;;;;;;;;;5062959;28;20202;-67
2023/08/20 01:36:41;;;;;;;7.95;7.28;;;;;;;;;;5063183;28;20238;-65
2023/08/20 01:39:08;;;;;;;7.53;6.93;;;;;;;;;;5061970;28;20198;-68
2023/08/20 01:41:34;;;;;;;8.23;7.20;;;;;;;;;;5062709;28;20265;-67
2023/08/20 01:44:01;;;;;;;9.35;7.47;;;;;;;;;;5063056;28;20630;-67
2023/08/20 01:46:28;;;;;;;8.32;7.47;;;;;;;;;;5061697;28;20201;-67
2023/08/20 01:48:55;;;;;;;8.35;7.65;;;;;;;;;;5062872;28;20295;-66
2023/08/20 01:51:21;;;;;;;7.80;7.10;;;;;;;;;;5062682;28;20198;-67
2023/08/20 01:53:48;;;;;;;7.78;7.32;;;;;;;;;;5061261;28;20348;-67
2023/08/20 01:56:14;;;;;;;7.43;6.72;;;;;;;;;;5061269;28;20272;-66
2023/08/20 01:58:41;;;;;;;12.38;7.95;;;;;;;;;;5060175;28;20304;-67
2023/08/20 02:01:07;;;;;;;8.05;7.40;;;;;;;;;;5061736;28;20289;-67
2023/08/20 02:03:35;;;;;;;7.97;7.38;;;;;;;;;;5061972;28;20222;-65
2023/08/20 02:06:02;;;;;;;8.00;7.03;;;;;;;;;;5061935;28;20207;-67
2023/08/20 02:08:28;;;;;;;8.40;7.22;;;;;;;;;;5059851;28;20206;-67
2023/08/20 02:11:00;;;;;;;7.90;7.30;;;;;;;;;;5061201;28;20226;-66
2023/08/20 02:13:27;;;;;;;9.48;8.10;;;;;;;;;;5061372;28;20202;-66
2023/08/20 02:15:58;;;;;;;8.15;7.55;;;;;;;;;;5062479;28;20664;-68
2023/08/20 02:18:24;;;;;;;10.43;7.55;;;;;;;;;;5063782;28;20238;-65
2023/08/20 02:20:52;;;;;;;8.98;8.10;;;;;;;;;;5064593;28;20862;-67
2023/08/20 02:23:18;;;;;;;8.82;7.38;;;;;;;;;;5065373;28;20237;-67
2023/08/20 02:25:45;;;;;;;10.52;7.90;;;;;;;;;;5065479;28;20707;-67
2023/08/20 02:28:11;;;;;;;8.73;8.02;;;;;;;;;;5066052;28;20316;-68
2023/08/20 02:30:40;;;;;;;9.88;8.27;;;;;;;;;;5066741;28;20281;-68
2023/08/20 02:33:06;;;;;;;8.27;7.47;;;;;;;;;;5067047;28;20226;-66
2023/08/20 02:35:33;;;;;;;9.90;8.30;;;;;;;;;;5066830;28;20256;-67
2023/08/20 02:38:00;;;;;;;8.55;7.75;;;;;;;;;;5066074;28;20226;-66
2023/08/20 02:40:27;;;;;;;8.48;7.88;;;;;;;;;;5066874;28;20264;-67
2023/08/20 02:42:53;;;;;;;8.95;8.07;;;;;;;;;;5066353;28;20312;-66
2023/08/20 02:45:20;;;;;;;9.48;8.68;;;;;;;;;;5066960;28;20910;-65
2023/08/20 02:47:46;;;;;;;8.55;7.85;;;;;;;;;;5065465;28;20252;-66
2023/08/20 02:50:13;;;;;;;10.63;9.05;;;;;;;;;;5064010;28;20814;-67
2023/08/20 02:52:39;;;;;;;14.05;8.02;;;;;;;;;;5064734;28;20218;-66
2023/08/20 02:55:07;;;;;;;8.60;7.90;;;;;;;;;;5063481;28;20255;-66
2023/08/20 02:57:34;;;;;;;8.25;7.40;;;;;;;;;;5062506;28;20246;-66
2023/08/20 03:00:00;;;;;;;11.00;8.02;;;;;;;;;;5063002;28;20298;-66
2023/08/20 03:02:27;;;;;;;9.02;7.60;;;;;;;;;;5064785;28;20287;-66
2023/08/20 03:04:55;;;;;;;8.48;7.70;;;;;;;;;;5065355;28;20206;-66
2023/08/20 03:07:22;;;;;;;15.10;7.32;;;;;;;;;;5063275;28;20209;-67
2023/08/20 03:09:48;;;;;;;9.05;8.23;;;;;;;;;;5064493;28;20195;-67
2023/08/20 03:12:16;;;;;;;8.88;7.38;;;;;;;;;;5065087;28;20659;-67
2023/08/20 03:14:43;;;;;;;7.35;6.75;;;;;;;;;;5066450;28;21024;-67
2023/08/20 03:17:09;;;;;;;7.90;7.30;;;;;;;;;;5065792;28;20229;-66
2023/08/20 03:19:36;;;;;;;7.82;6.88;;;;;;;;;;5066247;28;20262;-66
2023/08/20 03:22:02;;;;;;;8.77;8.15;;;;;;;;;;5066523;28;20228;-66
2023/08/20 03:24:28;;;;;;;13.18;6.75;;;;;;;;;;5066042;28;20298;-66
2023/08/20 03:26:55;;;;;;;8.30;7.45;;;;;;;;;;5066365;28;20335;-65
2023/08/20 03:29:23;;;;;;;7.63;7.03;;;;;;;;;;5065330;28;20210;-66
2023/08/20 03:31:49;;;;;;;8.65;7.90;;;;;;;;;;5066386;28;20198;-66
2023/08/20 03:34:16;;;;;;;8.43;7.63;;;;;;;;;;5064376;28;20669;-66
2023/08/20 03:36:42;;;;;;;7.95;7.25;;;;;;;;;;5066592;28;20226;-65
2023/08/20 03:39:09;;;;;;;9.45;7.65;;;;;;;;;;5065940;28;20692;-67
2023/08/20 03:41:35;;;;;;;8.93;8.02;;;;;;;;;;5066270;28;20287;-66
2023/08/20 03:44:03;;;;;;;8.80;8.10;;;;;;;;;;5065225;28;21872;-68
2023/08/20 03:46:31;;;;;;;8.48;7.60;;;;;;;;;;5066643;28;21419;-68
2023/08/20 03:48:58;;;;;;;8.70;8.00;;;;;;;;;;5064381;28;20256;-67
2023/08/20 03:51:24;;;;;;;7.97;7.28;;;;;;;;;;5065701;28;20256;-68
2023/08/20 03:53:51;;;;;;;8.55;7.45;;;;;;;;;;5064888;28;20780;-68
2023/08/20 03:56:17;;;;;;;9.02;7.80;;;;;;;;;;5065129;28;20259;-68
2023/08/20 03:58:44;;;;;;;8.80;7.18;;;;;;;;;;5064250;28;20198;-68
2023/08/20 04:01:10;;;;;;;8.48;7.00;;;;;;;;;;5065934;28;20198;-65
2023/08/20 04:03:38;;;;;;;8.07;7.40;;;;;;;;;;5065040;28;20229;-68
2023/08/20 04:06:04;;;;;;;8.98;8.00;;;;;;;;;;5065763;28;20625;-67
2023/08/20 04:08:31;;;;;;;8.27;7.60;;;;;;;;;;5064938;28;20263;-68
2023/08/20 04:10:57;;;;;;;9.00;7.95;;;;;;;;;;5064304;28;20252;-68
2023/08/20 04:13:24;;;;;;;9.27;7.57;;;;;;;;;;5065427;28;20733;-67
2023/08/20 04:15:50;;;;;;;9.25;8.55;;;;;;;;;;5064747;28;20977;-69
2023/08/20 04:18:17;;;;;;;8.57;7.88;;;;;;;;;;5065486;28;20214;-65
2023/08/20 04:20:44;;;;;;;11.02;8.07;;;;;;;;;;5064890;28;20343;-66
2023/08/20 04:23:11;;;;;;;9.05;8.45;;;;;;;;;;5064608;28;20275;-67
2023/08/20 04:25:37;;;;;;;9.00;8.40;;;;;;;;;;5065430;28;20202;-67
2023/08/20 04:28:04;;;;;;;9.93;8.13;;;;;;;;;;5063810;28;20207;-68
2023/08/20 04:30:30;;;;;;;9.70;7.80;;;;;;;;;;5065691;28;20868;-67
2023/08/20 04:32:57;;;;;;;9.15;8.35;;;;;;;;;;5064593;28;20304;-66
2023/08/20 04:35:23;;;;;;;9.23;8.05;;;;;;;;;;5065606;28;20210;-66
2023/08/20 04:37:51;;;;;;;10.52;8.68;;;;;;;;;;5065210;28;20198;-67
2023/08/20 04:40:17;;;;;;;9.23;8.30;;;;;;;;;;5064828;28;20269;-66
2023/08/20 04:42:44;;;;;;;9.35;8.15;;;;;;;;;;5064889;28;20237;-66
2023/08/20 04:45:10;;;;;;;11.23;7.57;;;;;;;;;;5065454;28;20636;-67
2023/08/20 04:47:38;;;;;;;8.25;7.75;;;;;;;;;;5065936;28;20294;-66
2023/08/20 04:50:06;;;;;;;7.95;7.25;;;;;;;;;;5064773;28;20206;-67
2023/08/20 04:52:33;;;;;;;13.25;7.93;;;;;;;;;;5054764;28;20234;-67
2023/08/20 04:55:00;;;;;;;9.25;8.40;;;;;;;;;;5060593;28;20229;-67
2023/08/20 04:57:27;;;;;;;10.15;8.07;;;;;;;;;;5064672;28;20267;-67
2023/08/20 04:59:53;;;;;;;9.05;8.02;;;;;;;;;;5065167;28;20625;-68
2023/08/20 05:02:20;;;;;;;9.20;7.60;;;;;;;;;;5064435;28;20284;-67
2023/08/20 05:04:46;;;;;;;13.93;7.47;;;;;;;;;;5064474;28;20800;-68
2023/08/20 05:07:13;;;;;;;8.35;7.75;;;;;;;;;;5064670;28;20202;-66
2023/08/20 05:09:39;;;;;;;8.52;7.68;;;;;;;;;;5065421;28;20648;-67
2023/08/20 05:12:07;;;;;;;8.13;7.40;;;;;;;;;;5064348;28;20268;-68
2023/08/20 05:14:34;;;;;;;8.70;7.90;;;;;;;;;;5063839;28;20202;-68
2023/08/20 05:17:00;;;;;;;11.82;8.38;;;;;;;;;;5065657;28;20230;-68
2023/08/20 05:19:27;;;;;;;12.07;8.73;;;;;;;;;;5066055;28;20765;-67
2023/08/20 05:21:55;;;;;;;11.77;7.68;;;;;;;;;;5065243;28;20198;-67
2023/08/20 05:24:22;;;;;;;9.63;7.05;;;;;;;;;;5063418;28;20225;-68
2023/08/20 05:26:50;;;;;;;9.73;7.45;;;;;;;;;;5064666;28;20299;-66
2023/08/20 05:29:18;;;;;;;8.05;7.55;;;;;;;;;;5065676;28;20282;-67
2023/08/20 05:31:44;;;;;;;8.32;7.53;;;;;;;;;;5065596;28;20222;-66
2023/08/20 05:34:11;;;;;;;7.30;6.78;;;;;;;;;;5064883;28;20717;-67
2023/08/20 05:36:37;;;;;;;9.40;6.38;;;;;;;;;;5066909;28;20202;-67
2023/08/20 05:39:04;;;;;;;6.93;6.47;;;;;;;;;;5065508;28;21711;-67
2023/08/20 05:41:30;;;;;;;8.32;6.85;;;;;;;;;;5066360;28;20326;-67
2023/08/20 05:43:57;;;;;;;9.18;6.82;;;;;;;;;;5061644;28;20592;-67
2023/08/20 05:46:25;;;;;;;7.35;6.53;;;;;;;;;;5051102;28;20205;-67
2023/08/20 05:48:51;;;;;;;11.77;6.90;;;;;;;;;;5048907;28;20308;-67
2023/08/20 05:51:18;;;;;;;10.30;7.35;;;;;;;;;;5052263;28;20198;-67
2023/08/20 05:53:44;;;;;;;7.93;6.45;;;;;;;;;;5061351;28;20218;-68
2023/08/20 05:56:10;;;;;;;13.05;7.47;;;;;;;;;;5067428;28;20218;-68
2023/08/20 05:58:37;;;;;;;7.40;6.90;;;;;;;;;;5067397;28;20274;-67
2023/08/20 06:01:03;;;;;;;7.43;6.93;;;;;;;;;;5068890;28;20198;-68
2023/08/20 06:03:31;;;;;;;7.63;7.03;;;;;;;;;;5062898;28;20250;-69
2023/08/20 06:05:58;;;;;;;11.13;7.75;;;;;;;;;;5054026;28;20202;-68
2023/08/20 06:08:24;;;;;;;8.32;6.88;;;;;;;;;;5056962;28;20199;-68
2023/08/20 06:10:51;;;;;;;7.07;6.40;;;;;;;;;;5053615;28;20207;-68
2023/08/20 06:13:17;;;;;;;8.65;7.18;;;;;;;;;;5053070;28;20222;-68
2023/08/20 06:15:43;;;;;;;8.52;7.72;;;;;;;;;;5053768;28;20195;-68
2023/08/20 06:18:10;;;;;;;11.20;7.63;;;;;;;;;;5067815;28;20233;-68
2023/08/20 06:20:38;;;;;;;8.85;7.72;;;;;;;;;;5068201;28;20243;-69
2023/08/20 06:23:04;;;;;;;7.38;6.82;;;;;;;;;;5067149;28;20264;-68
2023/08/20 06:25:31;;;;;;;9.05;6.70;;;;;;;;;;5061823;28;20664;-68
2023/08/20 06:27:57;;;;;;;7.35;6.85;;;;;;;;;;5055342;28;20204;-68
2023/08/20 06:30:23;;;;;;;7.20;6.63;;;;;;;;;;5054920;28;20288;-69
2023/08/20 06:32:50;;;;;;;8.15;7.05;;;;;;;;;;5052343;28;20238;-68
2023/08/20 06:35:16;;;;;;;15.63;7.22;;;;;;;;;;5050605;28;20688;-68
2023/08/20 06:37:44;;;;;;;9.00;6.60;;;;;;;;;;5055196;28;20203;-68
2023/08/20 06:40:11;;;;;;;6.82;6.43;;;;;;;;;;5055006;28;20202;-69
2023/08/20 06:42:37;;;;;;;7.00;6.03;;;;;;;;;;5052272;28;20728;-69
2023/08/20 06:45:04;;;;;;;7.10;6.50;;;;;;;;;;5052997;28;20253;-69
2023/08/20 06:47:31;;;;;;;6.32;5.90;;;;;;;;;;5051899;28;20253;-70
2023/08/20 06:49:57;;;;;;;6.80;6.40;;;;;;;;;;5062942;28;20751;-69
2023/08/20 06:52:23;;;;;;;7.30;6.70;;;;;;;;;;5063529;28;20444;-69
2023/08/20 06:54:51;;;;;;;8.00;7.22;;;;;;;;;;5065237;28;20649;-68
2023/08/20 06:57:18;;;;;;;6.85;6.25;;;;;;;;;;5064400;28;20210;-68
2023/08/20 06:59:44;;;;;;;8.50;7.07;;;;;;;;;;5066120;28;20307;-67
2023/08/20 07:02:11;;;;;;;9.45;6.97;;;;;;;;;;5065527;28;20198;-69
2023/08/20 07:04:37;;;;;;;7.63;6.93;;;;;;;;;;5063761;28;21266;-70
2023/08/20 07:07:04;;;;;;;7.05;6.60;;;;;;;;;;5064921;28;20275;-69
2023/08/20 07:09:31;;;;;;;7.43;6.78;;;;;;;;;;5058898;28;20329;-68
2023/08/20 07:11:58;;;;;;;6.80;6.38;;;;;;;;;;5050083;28;20249;-69
2023/08/20 07:14:25;;;;;;;7.05;6.45;;;;;;;;;;5054116;28;20210;-69
2023/08/20 07:16:51;;;;;;;7.57;6.97;;;;;;;;;;5055798;28;20222;-69
2023/08/20 07:19:18;;;;;;;6.45;5.95;;;;;;;;;;5055137;28;20207;-68
2023/08/20 07:21:44;;;;;;;7.10;6.45;;;;;;;;;;5067207;28;20244;-67
2023/08/20 07:24:11;;;;;;;9.65;7.40;;;;;;;;;;5065787;28;20226;-68
2023/08/20 07:26:37;;;;;;;6.93;6.20;;;;;;;;;;5067054;28;20206;-70
2023/08/20 07:29:05;;;;;;;7.20;6.10;;;;;;;;;;5065849;28;20217;-70
2023/08/20 07:31:32;;;;;;;5.65;5.25;;;;;;;;;;5067209;28;20281;-71
2023/08/20 07:33:59;;;;;;;12.90;6.13;;;;;;;;;;5066704;28;20198;-70
2023/08/20 07:36:26;;;;;;;9.52;5.97;;;;;;;;;;5065662;28;20210;-69
2023/08/20 07:38:53;;;;;;;6.90;5.75;;;;;;;;;;5067110;28;20210;-69
2023/08/20 07:41:20;;;;;;;6.38;5.75;;;;;;;;;;5066757;28;20234;-69
2023/08/20 07:43:47;;;;;;;6.20;5.60;;;;;;;;;;5067111;28;20779;-69
2023/08/20 07:46:15;;;;;;;5.68;5.38;;;;;;;;;;5065794;28;20202;-68
2023/08/20 07:48:42;;;;;;;6.07;5.25;;;;;;;;;;5067075;28;20671;-68
2023/08/20 07:51:08;;;;;;;8.70;5.78;;;;;;;;;;5066533;28;20246;-68
2023/08/20 07:53:35;;;;;;;6.65;6.00;;;;;;;;;;5066339;28;20735;-68
2023/08/20 07:56:02;;;;;;;10.75;6.30;;;;;;;;;;5065773;28;20634;-67
2023/08/20 07:58:29;;;;;;;6.38;5.97;;;;;;;;;;5064590;28;20252;-69
2023/08/20 08:00:55;;;;;;;7.43;6.03;;;;;;;;;;5064511;28;20199;-69
2023/08/20 08:03:23;;;;;;;6.20;5.70;;;;;;;;;;5066406;28;20638;-69
2023/08/20 08:05:50;;;;;;;8.38;5.70;;;;;;;;;;5066257;28;20215;-69
2023/08/20 08:08:16;;;;;;;10.25;6.07;;;;;;;;;;5065920;28;20202;-68
2023/08/20 08:10:44;;;;;;;8.25;5.05;;;;;;;;;;5065979;28;20675;-67
2023/08/20 08:13:10;;;;;;;6.32;5.55;;;;;;;;;;5065589;28;20680;-68
2023/08/20 08:15:37;;;;;;;7.82;5.03;;;;;;;;;;5064976;28;20222;-69
2023/08/20 08:18:03;;;;;;;5.15;4.85;;;;;;;;;;5065714;28;20226;-69
2023/08/20 08:20:31;;;;;;;5.85;5.45;;;;;;;;;;5066286;28;20206;-67
2023/08/20 08:22:58;;;;;;;5.78;4.85;;;;;;;;;;5065103;28;20260;-66
2023/08/20 08:25:24;;;;;;;5.65;5.15;;;;;;;;;;5065601;28;20715;-67
2023/08/20 08:27:51;;;;;;;5.10;4.70;;;;;;;;;;5065860;28;20221;-66
2023/08/20 08:30:17;;;;;;;5.05;4.65;;;;;;;;;;5066298;28;20210;-68
2023/08/20 08:32:43;;;;;;;6.38;4.97;;;;;;;;;;5065979;28;20256;-68
2023/08/20 08:35:10;;;;;;;5.20;4.72;;;;;;;;;;5065247;28;20283;-66
2023/08/20 08:37:38;;;;;;;4.55;4.25;;;;;;;;;;5064054;28;20202;-68
2023/08/20 08:40:05;;;;;;;9.05;5.05;;;;;;;;;;5066092;28;20233;-68
2023/08/20 08:42:33;;;;;;;4.78;4.47;;;;;;;;;;5065517;28;20384;-68
2023/08/20 08:45:00;;;;;;;7.68;4.90;;;;;;;;;;5064418;28;20769;-67
2023/08/20 08:47:27;;;;;;;4.97;4.47;;;;;;;;;;5064578;28;20264;-68
2023/08/20 08:49:56;;;;;;;4.85;4.55;;;;;;;;;;5065864;28;20198;-68
2023/08/20 08:52:23;;;;;;;6.13;4.47;;;;;;;;;;5065448;28;20230;-68
2023/08/20 08:54:51;;;;;;;5.13;4.72;;;;;;;;;;5065616;28;20225;-68
2023/08/20 08:57:17;;;;;;;5.63;5.18;;;;;;;;;;5064563;28;21098;-67
2023/08/20 08:59:44;;;;;;;5.72;5.10;;;;;;;;;;5064867;28;20214;-68
2023/08/20 09:02:11;;;;;;;6.22;5.13;;;;;;;;;;5064845;28;20761;-69
2023/08/20 09:04:39;;;;;;;4.13;3.75;;;;;;;;;;5062928;28;20313;-68
2023/08/20 09:07:05;;;;;;;4.63;4.00;;;;;;;;;;5062689;28;20309;-69
2023/08/20 09:09:32;;;;;;;4.85;4.22;;;;;;;;;;5065227;28;20194;-68
2023/08/20 09:12:00;;;;;;;5.88;4.35;;;;;;;;;;5063970;28;20213;-69
2023/08/20 09:14:29;;;;;;;4.90;4.47;;;;;;;;;;5064589;28;20234;-68
2023/08/20 09:16:56;;;;;;;7.38;4.57;;;;;;;;;;5064985;28;20206;-69
2023/08/20 09:19:23;;;;;;;5.45;4.65;;;;;;;;;;5065442;28;20259;-69
2023/08/20 09:21:52;;;;;;;6.35;5.75;;;;;;;;;;5062960;28;20238;-69
2023/08/20 09:24:23;;;;;;;5.32;4.68;;;;;;;;;;5064002;28;20218;-69
2023/08/20 09:26:50;;;;;;;6.93;5.40;;;;;;;;;;5061393;28;20295;-69
2023/08/20 09:29:18;;;;;;;6.53;6.03;;;;;;;;;;5063895;28;20254;-69
2023/08/20 09:31:46;;;;;;;5.43;4.70;;;;;;;;;;5057007;28;20868;-68
2023/08/20 09:34:13;;;;;;;11.88;10.80;;;;;;;;;;5053102;28;20229;-69
2023/08/20 09:36:40;;;;;;;5.97;5.57;;;;;;;;;;5057458;28;20251;-70
2023/08/20 09:39:06;;;;;;;5.38;4.30;;;;;;;;;;5049972;28;20203;-68
2023/08/20 09:41:34;;;;;;;6.57;6.03;;;;;;;;;;5048662;28;20364;-68
2023/08/20 09:44:01;;;;;;;4.75;4.45;;;;;;;;;;5048099;28;20211;-68
2023/08/20 09:46:32;;;;;;;13.98;12.48;;;;;;;;;;5049692;28;20741;-69
2023/08/20 09:48:58;;;;;;;29.95;23.52;;;;;;;;;;5049745;28;20646;-69
2023/08/20 09:51:26;;;;;;;15.95;12.40;;;;;;;;;;5050928;28;20714;-67
2023/08/20 09:53:56;;;;;;;4.95;4.15;;;;;;;;;;5056043;28;20222;-68
2023/08/20 09:56:28;;;;;;;3.20;3.00;;;;;;;;;;5063843;28;20210;-69
2023/08/20 09:58:54;;;;;;;4.65;4.35;;;;;;;;;;5064389;28;20203;-69
2023/08/20 10:01:21;;;;;;;5.93;4.88;;;;;;;;;;5063966;28;20209;-68
2023/08/20 10:03:49;;;;;;;5.07;4.45;;;;;;;;;;5052816;28;20199;-69
2023/08/20 10:06:15;;;;;;;4.45;4.05;;;;;;;;;;5049720;28;20226;-67
2023/08/20 10:08:42;;;;;;;3.72;3.28;;;;;;;;;;5050154;28;20226;-70
2023/08/20 10:11:08;;;;;;;3.83;3.63;;;;;;;;;;5049468;28;20666;-70
2023/08/20 10:13:35;;;;;;;3.13;2.92;;;;;;;;;;5047799;28;20641;-70
2023/08/20 10:16:01;;;;;;;3.97;3.78;;;;;;;;;;5048337;28;20203;-65
2023/08/20 10:18:28;;;;;;;4.28;3.05;;;;;;;;;;5046273;28;21376;-71
2023/08/20 10:20:57;;;;;;;3.65;3.38;;;;;;;;;;5047779;28;20738;-72
2023/08/20 10:23:23;;;;;;;3.78;3.38;;;;;;;;;;5046059;28;20199;-70
2023/08/20 10:25:52;;;;;;;4.25;3.85;;;;;;;;;;5054069;28;20676;-69
2023/08/20 10:28:21;;;;;;;6.45;5.63;;;;;;;;;;5061154;28;20238;-71
2023/08/20 10:31:07;;;;;;;3.90;3.30;;;;;;;;;;5058383;28;20207;-71
2023/08/20 10:33:34;;;;;;;3.00;2.83;;;;;;;;;;5048996;28;20209;-70
2023/08/20 10:36:09;;;;;;;3.40;3.13;;;;;;;;;;5060047;28;20331;-70
2023/08/20 10:38:37;;;;;;;4.90;2.78;;;;;;;;;;5065091;28;20986;-69
2023/08/20 10:41:06;;;;;;;3.53;3.33;;;;;;;;;;5068050;28;20291;-70
2023/08/20 10:43:34;;;;;;;3.63;3.35;;;;;;;;;;5068278;28;20206;-70
2023/08/20 10:46:07;;;;;;;3.60;3.35;;;;;;;;;;5051873;28;20276;-69
2023/08/20 10:48:34;;;;;;;3.67;3.47;;;;;;;;;;5056535;28;20230;-70
2023/08/20 10:51:07;;;;;;;4.80;3.38;;;;;;;;;;5052471;28;20209;-69
2023/08/20 10:53:35;;;;;;;3.78;3.30;;;;;;;;;;5054397;28;20223;-70
2023/08/20 10:56:08;;;;;;;3.03;2.83;;;;;;;;;;5052443;28;20199;-72
2023/08/20 10:58:34;;;;;;;3.42;3.13;;;;;;;;;;5054264;28;20198;-69
2023/08/20 11:01:15;;;;;;;3.90;2.70;;;;;;;;;;5060813;28;20207;-70
2023/08/20 11:03:41;;;;;;;4.20;3.15;;;;;;;;;;5068253;28;20205;-69
2023/08/20 11:06:08;;;;;;;3.55;3.28;;;;;;;;;;5067538;28;20242;-69
2023/08/20 11:08:36;;;;;;;2.92;2.80;;;;;;;;;;5067638;28;20198;-70
2023/08/20 11:11:03;;;;;;;6.50;3.55;;;;;;;;;;5065707;28;20895;-69
2023/08/20 11:13:29;;;;;;;3.20;3.00;;;;;;;;;;5061625;28;20234;-66
2023/08/20 11:15:56;;;;;;;3.33;3.08;;;;;;;;;;5053448;28;20664;-70
2023/08/20 11:18:22;;;;;;;3.75;3.45;;;;;;;;;;5055578;28;20765;-70
2023/08/20 11:20:49;;;;;;;2.90;2.80;;;;;;;;;;5053907;28;20704;-69
2023/08/20 11:23:16;;;;;;;4.22;3.70;;;;;;;;;;5051844;28;20300;-68
2023/08/20 11:25:44;;;;;;;3.47;3.28;;;;;;;;;;5051884;28;20219;-67
2023/08/20 11:28:11;;;;;;;3.40;3.20;;;;;;;;;;5053932;28;20199;-67
2023/08/20 11:30:37;;;;;;;3.67;3.47;;;;;;;;;;5058530;28;20206;-67
2023/08/20 11:33:05;;;;;;;3.42;3.13;;;;;;;;;;5065615;28;20222;-67
2023/08/20 11:35:31;;;;;;;5.78;3.25;;;;;;;;;;5066731;28;20286;-66
2023/08/20 11:37:59;;;;;;;3.15;2.85;;;;;;;;;;5066793;28;20202;-67
2023/08/20 11:40:25;;;;;;;7.30;3.85;;;;;;;;;;5067395;28;20206;-67
2023/08/20 11:42:53;;;;;;;5.80;3.13;;;;;;;;;;5059416;28;20235;-67
2023/08/20 11:45:20;;;;;;;3.95;3.47;;;;;;;;;;5051091;28;20261;-68
2023/08/20 11:47:46;;;;;;;3.00;2.80;;;;;;;;;;5057405;28;20644;-67
2023/08/20 11:50:13;;;;;;;3.17;2.97;;;;;;;;;;5066794;28;20607;-68
2023/08/20 11:52:40;;;;;;;2.63;2.42;;;;;;;;;;5066121;28;20222;-68
2023/08/20 11:55:07;;;;;;;4.55;3.20;;;;;;;;;;5060374;28;20293;-67
2023/08/20 11:57:33;;;;;;;3.13;2.92;;;;;;;;;;5064154;28;20695;-67
2023/08/20 12:00:05;;;;;;;3.47;3.28;;;;;;;;;;5066875;28;20198;-67
2023/08/20 12:02:31;;;;;;;5.00;3.92;;;;;;;;;;5066524;28;20198;-66
2023/08/20 12:04:58;;;;;;;3.60;3.30;;;;;;;;;;5065617;28;20201;-67
2023/08/20 12:07:26;;;;;;;3.75;3.10;;;;;;;;;;5064164;28;20297;-68
2023/08/20 12:09:52;;;;;;;4.78;3.60;;;;;;;;;;5062662;28;20267;-66
2023/08/20 12:12:20;;;;;;;3.20;3.00;;;;;;;;;;5064208;28;20226;-67
2023/08/20 12:14:46;;;;;;;3.30;3.00;;;;;;;;;;5064232;28;20203;-68
2023/08/20 12:17:17;;;;;;;3.22;2.92;;;;;;;;;;5064158;28;20295;-67
2023/08/20 12:19:44;;;;;;;4.13;2.85;;;;;;;;;;5063152;28;20222;-66
2023/08/20 12:22:10;;;;;;;3.22;3.03;;;;;;;;;;5064144;28;20253;-67
2023/08/20 12:24:36;;;;;;;3.45;3.25;;;;;;;;;;5064537;28;20260;-67
2023/08/20 12:27:03;;;;;;;4.32;4.00;;;;;;;;;;5062228;28;20222;-68
2023/08/20 12:29:30;;;;;;;3.75;3.45;;;;;;;;;;5065759;28;20201;-67
2023/08/20 12:31:56;;;;;;;3.67;3.38;;;;;;;;;;5066279;28;20628;-66
2023/08/20 12:34:25;;;;;;;4.35;4.05;;;;;;;;;;5065588;28;20202;-67
2023/08/20 12:36:52;;;;;;;3.17;2.97;;;;;;;;;;5066005;28;20247;-68
2023/08/20 12:39:18;;;;;;;5.05;3.70;;;;;;;;;;5066009;28;20229;-67
2023/08/20 12:41:45;;;;;;;3.05;2.90;;;;;;;;;;5065075;28;20332;-67
2023/08/20 12:44:12;;;;;;;3.42;3.22;;;;;;;;;;5065727;28;20263;-67
2023/08/20 12:46:39;;;;;;;3.67;3.30;;;;;;;;;;5073799;28;20222;-67
2023/08/20 12:49:05;;;;;;;4.15;3.72;;;;;;;;;;5065160;28;20206;-67
2023/08/20 12:51:33;;;;;;;4.25;3.80;;;;;;;;;;5065666;28;20229;-67
2023/08/20 12:54:00;;;;;;;3.25;2.92;;;;;;;;;;5069263;28;20244;-65
2023/08/20 12:56:27;;;;;;;3.35;3.15;;;;;;;;;;5060652;28;20284;-67
2023/08/20 12:58:53;;;;;;;7.57;3.78;;;;;;;;;;5053800;28;20222;-66
2023/08/20 13:01:20;;;;;;;5.45;3.35;;;;;;;;;;5050397;28;20279;-67
2023/08/20 13:03:46;;;;;;;3.50;3.30;;;;;;;;;;5060723;28;20203;-67
2023/08/20 13:06:13;;;;;;;3.97;3.78;;;;;;;;;;5064854;28;20704;-66
2023/08/20 13:08:42;;;;;;;3.50;3.30;;;;;;;;;;5064109;28;20198;-66
2023/08/20 13:11:10;;;;;;;4.43;3.30;;;;;;;;;;5061706;28;20578;-67
2023/08/20 13:13:37;;;;;;;6.68;3.90;;;;;;;;;;5050003;28;20256;-68
2023/08/20 13:16:04;;;;;;;3.60;3.30;;;;;;;;;;5050436;28;20696;-67
2023/08/20 13:18:31;;;;;;;5.82;3.78;;;;;;;;;;5052374;28;20209;-66
2023/08/20 13:20:57;;;;;;;3.63;3.30;;;;;;;;;;5053412;28;20198;-66
2023/08/20 13:23:24;;;;;;;3.30;2.97;;;;;;;;;;5048987;28;20227;-66
2023/08/20 13:25:52;;;;;;;3.47;3.28;;;;;;;;;;5051007;28;20317;-67
2023/08/20 13:28:18;;;;;;;4.35;4.00;;;;;;;;;;5053209;28;20299;-67
2023/08/20 13:30:45;;;;;;;3.60;3.30;;;;;;;;;;5051319;28;20205;-67
2023/08/20 13:33:12;;;;;;;3.63;3.42;;;;;;;;;;5049520;28;21775;-68
2023/08/20 13:35:38;;;;;;;3.58;3.15;;;;;;;;;;5053270;28;20256;-68
2023/08/20 13:38:05;;;;;;;4.13;3.78;;;;;;;;;;5048015;28;20203;-68
2023/08/20 13:40:31;;;;;;;3.95;3.55;;;;;;;;;;5065195;28;20202;-68
2023/08/20 13:42:59;;;;;;;3.85;3.65;;;;;;;;;;5065238;28;20253;-67
2023/08/20 13:45:26;;;;;;;4.07;3.30;;;;;;;;;;5065597;28;20210;-67
2023/08/20 13:47:52;;;;;;;4.35;3.20;;;;;;;;;;5063755;28;20218;-67
2023/08/20 13:50:19;;;;;;;4.72;3.60;;;;;;;;;;5052887;28;20222;-67
2023/08/20 13:52:45;;;;;;;3.97;3.55;;;;;;;;;;5049269;28;20215;-68
2023/08/20 13:55:12;;;;;;;3.22;3.03;;;;;;;;;;5061770;28;20681;-68
2023/08/20 13:57:38;;;;;;;3.58;3.38;;;;;;;;;;5053143;28;20195;-67
2023/08/20 14:00:09;;;;;;;4.30;3.95;;;;;;;;;;5050101;28;20638;-67
2023/08/20 14:02:35;;;;;;;3.55;3.35;;;;;;;;;;5059806;28;20668;-67
2023/08/20 14:05:04;;;;;;;5.75;3.47;;;;;;;;;;5063483;28;20734;-68
2023/08/20 14:07:30;;;;;;;3.67;3.47;;;;;;;;;;5062545;28;20228;-67
2023/08/20 14:09:56;;;;;;;3.25;3.05;;;;;;;;;;5062100;28;20295;-68
2023/08/20 14:12:23;;;;;;;4.00;2.95;;;;;;;;;;5061888;28;20237;-69
2023/08/20 14:14:49;;;;;;;3.33;3.13;;;;;;;;;;5066139;28;20226;-67
2023/08/20 14:17:18;;;;;;;3.47;3.17;;;;;;;;;;5066650;28;20279;-67
2023/08/20 14:19:44;;;;;;;3.05;2.88;;;;;;;;;;5065552;28;20221;-68
2023/08/20 14:22:11;;;;;;;3.38;3.17;;;;;;;;;;5064317;28;20226;-68
2023/08/20 14:24:37;;;;;;;7.53;3.25;;;;;;;;;;5067380;28;20206;-68
2023/08/20 14:27:04;;;;;;;3.15;2.95;;;;;;;;;;5067200;28;20218;-68
2023/08/20 14:29:30;;;;;;;2.85;2.67;;;;;;;;;;5068745;28;20230;-67
2023/08/20 14:31:56;;;;;;;4.18;3.85;;;;;;;;;;5056617;28;20206;-67
2023/08/20 14:34:24;;;;;;;4.60;3.53;;;;;;;;;;5052121;28;20281;-67
2023/08/20 14:36:51;;;;;;;3.17;2.95;;;;;;;;;;5052651;28;20199;-67
2023/08/20 14:39:17;;;;;;;4.00;3.30;;;;;;;;;;5052890;28;20210;-67